• Join FlightAware (Why Join?)
  • Login
  • US Flag 
11:20AM EST


 

Airport Tracker/Info


-or-


 

Live Flight TrackerFlight Track Log ✈ DCM1045 ✈ 10-May-2012 ✈ KCLT - KLIT

Flight Track Log - Related Links

Times and Time Zones

All times are in EDT time to prevent confusion due to time zone crossing. See the DCM1045 flight status page for this flight to view local times or setup timezone preferences in your user account.

Time Position Orientation Groundspeed Altitude Reporting Facility
EDT Latitude Longitude Course Direction KTS MPH feet Rate Location/Type
07:34AM 35.2264 -80.9394 357° North 163 188 1,500  Level Atlanta Center
07:35AM 35.2553 -80.9414 284° West 187 215 3,100 2,340 Climbing FAA TRACON SMA TRACON (SMA)
07:35AM 35.2653 -80.9900 279° West 223 257 4,600 2,400 Climbing FAA TRACON SMA TRACON (SMA)
07:36AM 35.2722 -81.0422 269° West 249 287 6,300 2,460 Climbing FAA TRACON SMA TRACON (SMA)
07:37AM 35.2714 -81.1058 260° West 272 313 7,900 1,200 Climbing FAA TRACON SMA TRACON (SMA)
07:37AM 35.2622 -81.1689 249° West 275 316 7,900 900 Level FAA TRACON SMA TRACON (SMA)
07:38AM 35.2431 -81.2300 248° West 279 321 9,100 2,520 Climbing FAA TRACON SMA TRACON (SMA)
07:39AM 35.2247 -81.2850 248° West 283 326 11,300 3,360 Climbing FAA TRACON SMA TRACON (SMA)
07:39AM 35.2011 -81.3547 246° West 316 364 13,600 3,720 Climbing FAA TRACON SMA TRACON (SMA)
07:40AM 35.1750 -81.4281 246° West 338 389 16,300 3,600 Climbing FAA TRACON SMA TRACON (SMA)
07:41AM 35.1492 -81.4983 260° West 350 403 18,400 1,920 Climbing FAA TRACON SMA TRACON (SMA)
07:41AM 35.1461 -81.5197 264° West 357 411 19,000 3,000 Climbing FAA TRACON SMA TRACON (SMA)
07:42AM 35.1358 -81.6464 266° West 368 423 22,200 3,180 Climbing Atlanta Center
07:43AM 35.1281 -81.7861 264° West 376 433 24,000 900 Climbing Atlanta Center
07:44AM 35.1178 -81.9108 265° West 381 438 24,000 900 Level Atlanta Center
07:45AM 35.1075 -82.0406 263° West 381 438 25,900 960 Climbing Atlanta Center
07:46AM 35.0947 -82.1703 267° West 388 447 26,000  Climbing Atlanta Center
07:47AM 35.0903 -82.2822 286° West 383 441 26,000 720 Level Atlanta Center
07:48AM 35.1211 -82.4136 289° West 377 434 27,500 1,380 Climbing Atlanta Center
07:49AM 35.1606 -82.5525 287° West 393 452 28,800 1,500 Climbing Atlanta Center
07:50AM 35.1933 -82.6817 288° West 400 460 30,500 1,620 Climbing Atlanta Center
07:51AM 35.2281 -82.8106 287° West 400 460 32,100 1,620 Climbing Atlanta Center
07:52AM 35.2606 -82.9425 286° West 400 460 33,800 1,620 Climbing Atlanta Center
07:53AM 35.2908 -83.0719 287° West 394 453 35,400 1,560 Climbing Atlanta Center
07:54AM 35.3231 -83.2014 288° West 394 453 37,000 1,320 Climbing Atlanta Center
07:55AM 35.3531 -83.3131 285° West 394 453 38,100 960 Climbing Atlanta Center
07:56AM 35.3808 -83.4403 268° West 394 453 39,200 840 Climbing Atlanta Center
07:57AM 35.3753 -83.5981 266° West 389 448 40,000 360 Climbing Atlanta Center
07:58AM 35.3675 -83.7331 267° West 389 448 40,000  Level Atlanta Center
07:59AM 35.3614 -83.8733 267° West 406 467 40,000  Level Atlanta Center
08:00AM 35.3553 -84.0158 267° West 411 473 40,000  Level Atlanta Center
08:01AM 35.3489 -84.1558 266° West 416 479 40,000  Level Atlanta Center
08:02AM 35.3403 -84.3086 266° West 416 479 40,000  Level Atlanta Center
08:03AM 35.3317 -84.4486 267° West 421 484 40,000  Level Atlanta Center
08:04AM 35.3247 -84.5911 267° West 421 484 40,000  Level Atlanta Center
08:05AM 35.3178 -84.7311 267° West 421 484 40,000  Level Atlanta Center
08:06AM 35.3108 -84.8711 265° West 421 484 40,000  Level Atlanta Center
08:07AM 35.3014 -85.0108 266° West 421 484 40,000  Level Atlanta Center
08:08AM 35.2939 -85.1456 265° West 421 484 40,000  Level Atlanta Center
08:09AM 35.2842 -85.2856 267° West 421 484 40,000  Level Atlanta Center
08:10AM 35.2786 -85.4228 265° West 421 484 40,000  Level Atlanta Center
08:11AM 35.2686 -85.5650 266° West 421 484 40,000  Level Atlanta Center
08:12AM 35.2606 -85.6997 266° West 416 479 40,000  Level Atlanta Center
08:13AM 35.2550 -85.8089 265° West 416 479 40,000  Level Atlanta Center
08:14AM 35.2442 -85.9614 266° West 411 473 40,000  Level Atlanta Center
08:15AM 35.2358 -86.1011 264° West 411 473 40,000  Level Atlanta Center
08:16AM 35.2228 -86.2481 266° West 406 467 40,000  Level Atlanta Center
08:17AM 35.2106 -86.4483 266° West 424 488 40,000  Level Memphis Center
08:18AM 35.2022 -86.5836 264° West 415 478 40,000  Level Memphis Center
08:19AM 35.1917 -86.7161 265° West 400 460 40,000  Level Memphis Center
08:20AM 35.1811 -86.8536 266° West 400 460 40,000  Level Memphis Center
08:21AM 35.1739 -86.9733 265° West 400 460 40,000  Level Memphis Center
08:22AM 35.1650 -87.1058 265° West 400 460 40,000  Level Memphis Center
08:23AM 35.1558 -87.2383 264° West 400 460 40,000  Level Memphis Center
08:24AM 35.1444 -87.3733 265° West 400 460 40,000  Level Memphis Center
08:25AM 35.1353 -87.5081 264° West 405 466 40,000  Level Memphis Center
08:26AM 35.1217 -87.6558 264° West 405 466 40,000  Level Memphis Center
08:27AM 35.1100 -87.7908 265° West 405 466 40,000  Level Memphis Center
08:28AM 35.1003 -87.9206 264° West 405 466 40,000  Level Memphis Center
08:29AM 35.0881 -88.0528 266° West 405 466 40,000  Level Memphis Center
08:30AM 35.0803 -88.1900 265° West 410 472 40,000  Level Memphis Center
08:31AM 35.0700 -88.3272 264° West 410 472 40,000  Level Memphis Center
08:32AM 35.0575 -88.4622 263° West 404 465 40,000  Level Memphis Center
08:33AM 35.0447 -88.5917 264° West 404 465 40,000  Level Memphis Center
08:34AM 35.0339 -88.7111 264° West 404 465 40,000  Level Memphis Center
08:35AM 35.0231 -88.8458 262° West 409 471 40,000  Level Memphis Center
08:36AM 35.0081 -88.9831 264° West 409 471 40,000  Level Memphis Center
08:37AM 34.9969 -89.1175 264° West 409 471 40,000  Level Memphis Center
08:38AM 34.9858 -89.2544 264° West 409 471 40,000  Level Memphis Center
08:39AM 34.9744 -89.3889 263° West 403 464 40,000  Level Memphis Center
08:40AM 34.9608 -89.5233 263° West 408 470 40,000 -60 Level Memphis Center
08:41AM 34.9469 -89.6628 262° West 408 470 39,900 -660 Descending Memphis Center
08:42AM 34.9289 -89.8125 267° West 413 475 38,700 -1,320 Descending Memphis Center
08:43AM 34.9233 -89.9467 262° West 429 494 37,300 -1,380 Descending Memphis Center
08:44AM 34.9069 -90.0911 262° West 441 507 36,000 -1,440 Descending Memphis Center
08:45AM 34.8906 -90.2381 263° West 441 507 34,500 -1,800 Descending Memphis Center
08:46AM 34.8758 -90.3797 264° West 434 499 32,400 -2,220 Descending Memphis Center
08:47AM 34.8611 -90.5367 263° West 434 499 30,100 -2,400 Descending Memphis Center
08:48AM 34.8464 -90.6783 263° West 429 494 27,700 -2,400 Descending Memphis Center
08:49AM 34.8314 -90.8175 262° West 422 486 25,300 -2,400 Descending Memphis Center
08:50AM 34.8161 -90.9464 263° West 411 473 22,900 -2,760 Descending Memphis Center
08:51AM 34.8031 -91.0753 263° West 393 452 19,800 -3,120 Descending Memphis Center
08:52AM 34.7897 -91.1992 265° West 376 433 16,700 -3,060 Descending Memphis Center
08:53AM 34.7806 -91.3181 255° West 363 418 13,700 -3,120 Descending Memphis Center
08:54AM 34.7675 -91.3786 263° West 351 404 12,100 -2,700 Descending Memphis Center
08:54AM 34.7628 -91.4289 262° West 348 400 11,000 -1,860 Descending Memphis Center
08:55AM 34.7561 -91.4894 261° West 307 353 10,100 -1,800 Descending Memphis Center
08:56AM 34.7447 -91.5778 263° West 279 321 8,300 -1,740 Descending Memphis Center
08:57AM 34.7356 -91.6686 255° West 275 316 6,800 -1,680 Descending Memphis Center
08:58AM 34.7158 -91.7594 257° West 261 300 5,000 -1,620 Descending Memphis Center
08:59AM 34.6981 -91.8525 256° West 268 308 3,400 -1,140 Descending Memphis Center
09:00AM 34.6803 -91.9406 254° West 267 307 2,600 -720 Descending Memphis Center
09:01AM 34.6561 -92.0411 262° West 268 308 1,900 -360 Descending Memphis Center
09:02AM 34.6464 -92.1267 273° West 271 312 1,900 -60 Level Memphis Center
09:03AM 34.6494 -92.2075 314° West 214 246 1,800 -420 Descending Memphis Center
09:04AM 34.6781 -92.2436 359° North 158 182 1,100 -780 Descending Memphis Center
09:05AM 34.7136 -92.2444 306° West 127 146 400 14,700 Descending Memphis Center
09:06AM 34.7461 -92.2983 306° West 136 157 35,000 26,940 Climbing Memphis Center